Time;durP1;ratioP1;P1;durP2;ratioP2;P2;SDS_P1;SDS_P2;PMS_P1;PMS_P2;Temp;Humidity;BMP_temperature;BMP_pressure;BME280_temperature;BME280_humidity;BME280_pressure;Samples;Min_cycle;Max_cycle;Signal;HPM_P1;HPM_P2
2022/09/05 00:02:01;;;;;;;;;0.00;0.00;;;;;25.55;43.06;101095.50;5119073;27;45154;-61
2022/09/05 00:04:46;;;;;;;;;1.67;1.67;;;;;25.55;43.34;101093.66;5119404;27;45079;-62
2022/09/05 00:07:23;;;;;;;;;3.00;3.00;;;;;25.43;43.36;101085.84;5118841;27;46192;-62
2022/09/05 00:10:06;;;;;;;;;2.00;1.67;;;;;25.48;43.83;101100.25;5115574;27;45430;-62
2022/09/05 00:12:34;;;;;;;;;1.67;1.33;;;;;25.45;43.30;101094.88;5118203;27;45073;-63
2022/09/05 00:15:38;;;;;;;;;2.00;2.00;;;;;25.42;43.61;101102.28;5121244;27;44945;-62
2022/09/05 00:18:12;;;;;;;;;1.00;1.00;;;;;25.39;43.87;101100.53;5117895;27;45043;-63
2022/09/05 00:20:44;;;;;;;;;3.33;1.00;;;;;25.32;43.91;101105.28;5117936;27;45581;-62
2022/09/05 00:23:19;;;;;;;;;2.67;1.00;;;;;25.27;44.76;101112.72;5117911;27;46772;-62
2022/09/05 00:26:37;;;;;;;;;2.00;2.00;;;;;25.15;44.74;101113.06;5125716;27;45282;-62
2022/09/05 00:29:11;;;;;;;;;5.33;3.67;;;;;25.09;45.08;101111.38;5100313;27;46213;-61
2022/09/05 00:32:00;;;;;;;;;1.00;1.00;;;;;25.05;45.02;101114.28;5118318;27;45358;-61
2022/09/05 00:34:49;;;;;;;;;3.00;1.33;;;;;25.00;45.20;101114.41;5123929;27;45091;-64
2022/09/05 00:37:28;;;;;;;;;3.67;2.00;;;;;24.94;45.58;101111.81;5117388;27;45355;-62
2022/09/05 00:40:07;;;;;;;;;3.00;1.67;;;;;24.95;45.43;101098.13;5119700;27;45322;-64
2022/09/05 00:42:33;;;;;;;;;1.00;1.00;;;;;24.90;45.21;101091.88;5128158;27;74845;-62
2022/09/05 00:45:02;;;;;;;;;2.00;1.00;;;;;24.88;45.11;101082.84;5114567;27;45217;-62
2022/09/05 00:47:36;;;;;;;;;2.00;1.00;;;;;24.88;45.43;101081.91;5111453;27;45244;-62
2022/09/05 00:50:14;;;;;;;;;1.00;1.00;;;;;24.91;45.22;101092.78;5111921;27;45318;-62
2022/09/05 00:52:47;;;;;;;;;1.00;1.00;;;;;24.87;45.07;101093.81;5122762;27;46097;-61
2022/09/05 00:55:33;;;;;;;;;1.67;1.67;;;;;24.82;45.68;101105.75;5108432;27;45319;-62
2022/09/05 00:58:17;;;;;;;;;1.33;1.33;;;;;24.86;45.12;101108.41;5116954;27;45273;-61
2022/09/05 01:00:54;;;;;;;;;2.33;1.00;;;;;24.92;45.08;101113.72;5114923;27;46473;-62
2022/09/05 01:03:34;;;;;;;;;3.00;2.00;;;;;24.94;45.26;101100.88;5115765;27;45682;-62
2022/09/05 01:06:36;;;;;;;;;3.67;1.33;;;;;24.97;44.69;101098.06;5115358;27;45072;-61
2022/09/05 01:09:23;;;;;;;;;1.00;1.00;;;;;24.98;45.24;101091.69;5119341;27;45121;-62
2022/09/05 01:12:08;;;;;;;;;1.00;1.00;;;;;25.00;45.21;101082.47;5109338;27;45520;-62
2022/09/05 01:15:10;;;;;;;;;2.00;2.00;;;;;24.99;46.62;101060.66;5101615;27;45486;-61
2022/09/05 01:18:14;;;;;;;;;2.67;1.00;;;;;24.97;46.70;101059.81;5095782;27;45672;-61
2022/09/05 01:21:13;;;;;;;;;3.67;2.33;;;;;24.96;47.67;101069.84;5108379;27;45524;-63
2022/09/05 01:24:12;;;;;;;;;1.00;1.00;;;;;24.99;48.37;101063.38;5101861;27;45356;-61
2022/09/05 01:27:16;;;;;;;;;2.33;2.00;;;;;24.96;48.56;101060.72;5119857;27;45686;-61
2022/09/05 01:30:02;;;;;;;;;2.00;1.00;;;;;25.01;48.54;101097.03;5103604;27;45266;-62
2022/09/05 01:32:49;;;;;;;;;2.00;1.00;;;;;24.84;49.54;101147.59;5100209;27;45388;-62
2022/09/05 01:35:51;;;;;;;;;2.33;2.00;;;;;24.75;50.05;101130.53;5103015;27;45712;-61
2022/09/05 01:38:22;;;;;;;;;1.00;0.67;;;;;24.68;50.77;101134.38;5117378;27;45554;-61
2022/09/05 01:41:06;;;;;;;;;3.00;2.00;;;;;24.56;54.08;101141.06;5124139;27;45600;-61
2022/09/05 01:44:00;;;;;;;;;2.33;2.00;;;;;24.46;54.77;101110.31;5117175;27;45638;-62
2022/09/05 01:46:37;;;;;;;;;3.67;2.33;;;;;24.38;54.99;101075.00;5117845;27;45131;-61
2022/09/05 01:49:28;;;;;;;;;2.67;1.00;;;;;24.29;53.83;101035.19;5114058;27;46549;-61
2022/09/05 01:52:12;;;;;;;;;1.00;1.00;;;;;24.21;55.03;101069.97;5116852;27;45305;-62
2022/09/05 01:54:46;;;;;;;;;4.00;2.00;;;;;24.16;54.56;101039.16;5121799;27;45313;-62
2022/09/05 01:57:37;;;;;;;;;2.00;2.00;;;;;24.16;54.04;101050.09;5125577;27;45167;-61
2022/09/05 02:00:11;;;;;;;;;1.67;1.67;;;;;24.12;55.27;101037.44;5114911;27;46043;-61
2022/09/05 02:03:02;;;;;;;;;2.67;2.00;;;;;24.15;55.44;101040.09;5115457;27;45109;-62
2022/09/05 02:06:00;;;;;;;;;1.00;1.00;;;;;24.15;55.51;101039.19;5113221;27;45333;-62
2022/09/05 02:08:43;;;;;;;;;2.00;2.00;;;;;24.15;55.85;101088.34;5065819;27;45219;-62
2022/09/05 02:11:09;;;;;;;;;2.00;2.00;;;;;24.11;53.89;101062.97;5115086;27;45218;-63
2022/09/05 02:13:34;;;;;;;;;1.67;1.67;;;;;24.09;53.43;101065.72;5115817;27;45173;-62
2022/09/05 02:16:32;;;;;;;;;2.00;2.00;;;;;24.07;52.99;101053.97;5115627;27;45061;-61
2022/09/05 02:19:09;;;;;;;;;2.67;2.67;;;;;24.08;52.78;101052.13;5104220;27;45345;-62
2022/09/05 02:21:40;;;;;;;;;3.00;2.67;;;;;24.12;53.03;101069.31;5119448;27;45726;-63
2022/09/05 02:24:46;;;;;;;;;1.67;1.67;;;;;24.16;52.87;101063.75;5110254;27;45435;-61
2022/09/05 02:27:33;;;;;;;;;1.33;1.33;;;;;24.18;53.24;101064.59;5111333;27;45102;-61
2022/09/05 02:30:16;;;;;;;;;4.00;2.67;;;;;24.12;53.13;101063.84;5129707;27;45010;-62
2022/09/05 02:33:22;;;;;;;;;3.33;3.33;;;;;24.10;53.23;101067.53;5113497;27;45449;-62
2022/09/05 02:36:04;;;;;;;;;3.33;2.67;;;;;23.95;52.53;101050.63;5115857;27;45168;-62
2022/09/05 02:38:53;;;;;;;;;2.00;2.00;;;;;24.02;52.77;101072.28;5118352;27;45052;-61
2022/09/05 02:41:33;;;;;;;;;1.00;1.00;;;;;23.91;52.80;101063.44;5123328;27;45154;-61
2022/09/05 02:44:20;;;;;;;;;3.00;2.00;;;;;23.95;52.94;101067.88;5116870;27;46012;-63
2022/09/05 02:47:05;;;;;;;;;2.00;2.00;;;;;23.92;53.07;101073.41;5113426;27;45228;-61
2022/09/05 02:50:25;;;;;;;;;2.00;2.00;;;;;23.92;54.01;101079.78;5125419;27;45011;-63
2022/09/05 02:52:52;;;;;;;;;2.00;2.00;;;;;23.94;53.70;101076.09;5122151;27;45220;-61
2022/09/05 02:55:40;;;;;;;;;2.33;2.33;;;;;23.94;53.63;101084.28;5124000;27;45816;-62
2022/09/05 02:58:43;;;;;;;;;3.33;3.33;;;;;23.96;53.73;101093.38;5125136;27;45081;-62
2022/09/05 03:01:24;;;;;;;;;2.00;2.00;;;;;23.96;53.73;101102.44;5117064;27;45418;-62
2022/09/05 03:04:08;;;;;;;;;3.67;3.00;;;;;23.94;53.93;101098.84;5119518;27;45590;-62
2022/09/05 03:07:06;;;;;;;;;3.00;3.00;;;;;23.92;53.42;101100.69;5118300;27;46548;-60
2022/09/05 03:10:08;;;;;;;;;1.00;1.00;;;;;23.91;53.28;101091.63;5117765;27;45110;-62
2022/09/05 03:12:49;;;;;;;;;3.00;3.00;;;;;23.92;53.96;101100.69;5115827;27;45502;-62
2022/09/05 03:15:36;;;;;;;;;5.33;4.00;;;;;23.94;53.84;101111.59;5118820;27;44872;-62
2022/09/05 03:18:22;;;;;;;;;4.00;4.00;;;;;23.95;54.12;101121.59;5109001;27;45494;-62
2022/09/05 03:21:00;;;;;;;;;5.67;4.33;;;;;23.93;53.25;101129.81;5123640;27;45214;-61
2022/09/05 03:24:00;;;;;;;;;4.33;4.33;;;;;23.91;53.05;101126.22;5123695;27;45250;-61
2022/09/05 03:26:58;;;;;;;;;4.00;4.00;;;;;23.83;53.84;101134.56;5072205;28;45245;-63
2022/09/05 03:29:42;;;;;;;;;5.33;2.33;;;;;23.76;54.12;101135.63;5118458;27;45515;-62
2022/09/05 03:32:22;;;;;;;;;3.67;3.67;;;;;23.65;54.87;101122.19;5120604;27;45145;-61
2022/09/05 03:35:09;;;;;;;;;2.67;2.67;;;;;23.65;53.69;101126.75;5117371;27;44947;-62
2022/09/05 03:38:02;;;;;;;;;4.00;3.00;;;;;23.59;54.35;101137.81;5119993;27;45078;-61
2022/09/05 03:40:35;;;;;;;;;2.00;2.00;;;;;23.51;54.97;101133.41;5122453;27;45066;-62
2022/09/05 03:43:38;;;;;;;;;3.00;3.00;;;;;23.47;54.52;101134.41;5118702;27;45027;-62
2022/09/05 03:46:32;;;;;;;;;3.33;1.00;;;;;23.46;55.12;101134.44;5116397;27;45211;-63
2022/09/05 03:49:14;;;;;;;;;3.67;3.00;;;;;23.46;54.78;101124.44;5116198;27;45421;-63
2022/09/05 03:51:59;;;;;;;;;2.00;2.00;;;;;23.46;55.11;101127.16;5120061;27;46075;-62
2022/09/05 03:54:46;;;;;;;;;3.00;3.00;;;;;23.47;55.45;101112.56;5119770;27;45166;-62
2022/09/05 03:57:17;;;;;;;;;2.00;2.00;;;;;23.49;55.21;101118.88;5124260;27;45265;-61
2022/09/05 04:00:05;;;;;;;;;4.33;4.33;;;;;23.50;54.16;101133.44;5113085;27;45345;-62
2022/09/05 04:02:34;;;;;;;;;4.00;3.00;;;;;23.53;54.74;101127.94;5113630;27;45624;-62
2022/09/05 04:05:12;;;;;;;;;6.00;4.67;;;;;23.50;54.94;101126.16;5119371;27;45443;-61
2022/09/05 04:07:45;;;;;;;;;4.67;3.00;;;;;23.52;54.40;101131.56;5105051;27;45332;-61
2022/09/05 04:10:32;;;;;;;;;3.33;2.00;;;;;23.46;55.15;101124.44;5114176;27;45124;-61
2022/09/05 04:13:13;;;;;;;;;3.33;2.00;;;;;23.52;54.61;101134.31;5120739;27;45135;-62
2022/09/05 04:15:49;;;;;;;;;3.00;3.00;;;;;23.49;55.01;101124.34;5124832;27;45082;-62
2022/09/05 04:18:24;;;;;;;;;4.33;3.33;;;;;23.56;54.44;101130.59;5125652;27;44970;-61
2022/09/05 04:21:00;;;;;;;;;4.00;2.33;;;;;23.55;54.21;101117.88;5119428;27;45057;-62
2022/09/05 04:23:33;;;;;;;;;3.33;2.33;;;;;23.56;54.40;101133.31;5111380;27;45741;-61
2022/09/05 04:26:04;;;;;;;;;2.33;2.33;;;;;23.51;54.22;101118.84;5118020;27;45031;-61
2022/09/05 04:28:44;;;;;;;;;2.00;2.00;;;;;23.51;54.42;101133.41;5126208;27;45143;-62
2022/09/05 04:31:27;;;;;;;;;4.00;3.00;;;;;23.54;54.58;101122.44;5116232;27;45051;-61
2022/09/05 04:34:29;;;;;;;;;5.00;2.67;;;;;23.51;54.27;101118.84;5120621;27;45351;-62
2022/09/05 04:37:02;;;;;;;;;5.00;3.00;;;;;23.51;54.24;101119.78;5112496;27;45300;-62
2022/09/05 04:39:29;;;;;;;;;2.00;2.00;;;;;23.53;54.08;101122.47;5124968;27;45063;-62
2022/09/05 04:42:03;;;;;;;;;2.00;2.00;;;;;23.53;53.79;101125.19;5116355;27;44928;-62
2022/09/05 04:44:34;;;;;;;;;2.33;2.33;;;;;23.48;54.16;101110.78;5111370;27;46152;-63
2022/09/05 04:47:07;;;;;;;;;3.00;3.00;;;;;23.57;54.13;101126.03;5117644;27;45200;-62
2022/09/05 04:49:38;;;;;;;;;5.67;5.67;;;;;23.57;54.02;101146.00;5114489;27;45186;-63
2022/09/05 04:52:43;;;;;;;;;3.00;2.33;;;;;23.55;54.27;101161.53;5117322;27;45018;-63
2022/09/05 04:55:19;;;;;;;;;2.00;2.00;;;;;23.56;53.90;101155.16;5123462;27;45807;-63
2022/09/05 04:57:52;;;;;;;;;3.33;3.33;;;;;23.57;54.23;101159.66;5117996;27;44979;-62
2022/09/05 05:00:36;;;;;;;;;5.00;3.00;;;;;23.59;54.18;101156.91;5110179;27;45223;-62
2022/09/05 05:03:10;;;;;;;;;4.00;4.00;;;;;23.10;53.92;101069.75;5120814;27;45100;-61
2022/09/05 05:05:47;;;;;;;;;5.33;3.33;;;;;23.54;54.22;101149.72;5113901;27;45855;-62
2022/09/05 05:08:34;;;;;;;;;6.00;5.67;;;;;23.54;54.27;101155.19;5111980;27;45203;-62
2022/09/05 05:11:07;;;;;;;;;11.67;11.67;;;;;23.55;53.98;101153.34;5118039;27;45120;-62
2022/09/05 05:13:39;;;;;;;;;4.00;3.67;;;;;23.57;53.66;101150.56;5113865;27;45266;-62
2022/09/05 05:16:22;;;;;;;;;4.67;3.00;;;;;23.55;53.98;101151.50;5110359;27;45066;-63
2022/09/05 05:18:53;;;;;;;;;4.00;4.00;;;;;23.55;54.01;101156.06;5115056;27;45310;-63
2022/09/05 05:21:21;;;;;;;;;2.33;2.33;;;;;23.54;54.01;101155.19;5122821;27;45078;-62
2022/09/05 05:23:58;;;;;;;;;3.67;3.67;;;;;23.52;53.92;101150.66;5120957;27;45281;-63
2022/09/05 05:26:24;;;;;;;;;5.00;4.67;;;;;23.53;53.91;101147.03;5117748;27;45751;-63
2022/09/05 05:28:58;;;;;;;;;8.00;6.00;;;;;23.40;54.09;101131.84;5122122;27;44938;-61
2022/09/05 05:31:29;;;;;;;;;6.33;5.00;;;;;23.45;53.57;101139.00;5119172;27;45135;-63
2022/09/05 05:33:59;;;;;;;;;5.33;5.00;;;;;23.55;53.94;101150.63;5112825;27;45124;-65
2022/09/05 05:36:39;;;;;;;;;5.33;5.33;;;;;23.43;54.58;101138.13;5114972;27;45325;-63
2022/09/05 05:39:19;;;;;;;;;5.33;5.00;;;;;23.53;54.79;101157.94;5098281;27;45670;-62
2022/09/05 05:41:53;;;;;;;;;4.33;4.33;;;;;23.57;54.80;101166.94;5104392;27;45354;-61
2022/09/05 05:44:29;;;;;;;;;6.00;6.00;;;;;23.56;55.09;101166.06;5115561;27;45332;-61
2022/09/05 05:47:01;;;;;;;;;5.00;5.00;;;;;23.58;55.00;101166.91;5113892;27;45616;-63
2022/09/05 05:49:45;;;;;;;;;15.33;11.00;;;;;23.55;55.00;101158.78;5115817;27;45484;-63
2022/09/05 05:52:32;;;;;;;;;8.33;8.33;;;;;23.60;55.05;101161.44;5128033;27;45020;-61
2022/09/05 05:55:20;;;;;;;;;8.33;8.33;;;;;23.55;55.32;101154.22;5114330;27;45388;-65
2022/09/05 05:58:04;;;;;;;;;10.67;7.00;;;;;23.49;55.14;101161.63;5111237;27;46389;-63
2022/09/05 06:01:01;;;;;;;;;6.67;6.00;;;;;23.58;55.49;101180.56;5114807;27;45405;-63
2022/09/05 06:03:58;;;;;;;;;6.00;5.67;;;;;23.60;55.44;101185.97;5114601;27;45526;-63
2022/09/05 06:06:54;;;;;;;;;6.33;6.33;;;;;23.58;55.24;101187.81;5118765;27;46123;-64
2022/09/05 06:09:49;;;;;;;;;5.33;5.33;;;;;23.54;55.41;101198.81;5108340;27;45770;-65
2022/09/05 06:12:37;;;;;;;;;6.33;6.00;;;;;23.53;55.13;101198.84;5102847;27;45393;-61
2022/09/05 06:15:16;;;;;;;;;7.00;6.00;;;;;23.54;54.44;101206.06;5115271;27;45231;-62
2022/09/05 06:18:02;;;;;;;;;8.00;5.00;;;;;23.57;54.44;101202.41;5108682;27;45201;-64
2022/09/05 06:20:49;;;;;;;;;7.33;7.33;;;;;23.59;53.97;101206.00;5108170;27;46146;-66
2022/09/05 06:23:51;;;;;;;;;8.67;7.00;;;;;23.59;53.84;101212.34;5114625;27;45181;-62
2022/09/05 06:26:48;;;;;;;;;10.00;9.00;;;;;23.64;54.04;101226.81;5101616;27;45463;-64
2022/09/05 06:29:35;;;;;;;;;8.67;7.33;;;;;23.66;53.49;101222.22;5094994;27;45401;-67
2022/09/05 06:32:14;;;;;;;;;5.00;5.00;;;;;23.67;53.04;101218.53;5102455;27;45815;-62
2022/09/05 06:34:45;;;;;;;;;6.00;6.00;;;;;23.64;52.65;101232.25;5106194;27;45663;-67
2022/09/05 06:37:41;;;;;;;;;3.67;3.67;;;;;23.58;52.59;101236.91;5102426;27;45761;-63
2022/09/05 06:40:28;;;;;;;;;5.67;5.67;;;;;23.33;52.56;101194.69;5108149;27;45429;-63
2022/09/05 06:43:12;;;;;;;;;6.00;6.00;;;;;23.53;52.92;101251.56;5103033;27;45399;-65
2022/09/05 06:45:56;;;;;;;;;7.00;6.33;;;;;23.59;52.79;101257.81;5099516;27;45426;-66
2022/09/05 06:48:33;;;;;;;;;5.67;5.67;;;;;23.57;52.84;101260.56;5098798;27;45474;-66
2022/09/05 06:51:43;;;;;;;;;5.00;5.00;;;;;23.57;52.94;101268.75;5099031;27;45498;-67
2022/09/05 06:54:16;;;;;;;;;5.00;5.00;;;;;23.58;52.96;101273.28;5097311;27;47155;-66
2022/09/05 06:57:03;;;;;;;;;5.33;5.00;;;;;23.67;52.78;101283.13;5108668;27;45670;-66
2022/09/05 07:00:04;;;;;;;;;5.00;5.00;;;;;23.72;52.72;101283.94;5103961;27;45401;-67
2022/09/05 07:02:44;;;;;;;;;15.00;12.00;;;;;23.63;52.17;101268.66;5100053;27;45328;-65
2022/09/05 07:05:30;;;;;;;;;8.67;7.00;;;;;23.57;52.24;101246.94;5100512;27;46226;-66
2022/09/05 07:08:19;;;;;;;;;7.67;6.33;;;;;23.99;52.14;101298.91;5101345;27;45503;-66
2022/09/05 07:11:09;;;;;;;;;5.00;5.00;;;;;24.13;51.52;101286.78;5096953;27;45477;-65
2022/09/05 07:13:46;;;;;;;;;4.00;4.00;;;;;24.21;51.48;101295.72;5098722;27;45498;-65
2022/09/05 07:16:21;;;;;;;;;4.67;4.67;;;;;24.19;51.03;101284.81;5097526;27;46115;-64
2022/09/05 07:19:09;;;;;;;;;14.33;13.00;;;;;24.34;50.94;101291.78;5110205;27;45336;-66
2022/09/05 07:21:59;;;;;;;;;5.00;5.00;;;;;24.42;50.24;101287.03;5097291;27;45466;-63
2022/09/05 07:24:27;;;;;;;;;5.00;5.00;;;;;24.44;49.94;101301.56;5105217;27;45464;-62
2022/09/05 07:26:57;;;;;;;;;7.33;5.00;;;;;24.43;50.60;101302.47;5104524;27;46285;-67
2022/09/05 07:29:33;;;;;;;;;8.33;6.00;;;;;24.45;50.19;101306.09;5101129;27;45526;-64
2022/09/05 07:32:01;;;;;;;;;6.00;5.00;;;;;24.51;50.19;101304.16;5099894;27;45523;-64
2022/09/05 07:34:33;;;;;;;;;8.00;7.00;;;;;24.48;50.00;101305.09;5111113;27;45661;-68
2022/09/05 07:37:15;;;;;;;;;5.00;3.00;;;;;24.53;50.09;101299.53;5098667;27;48147;-67
2022/09/05 07:40:08;;;;;;;;;7.00;5.33;;;;;24.61;49.93;101289.38;5105830;27;45373;-63
2022/09/05 07:42:41;;;;;;;;;5.33;3.33;;;;;24.58;50.08;101287.63;5101463;27;45454;-63
2022/09/05 07:45:16;;;;;;;;;5.33;4.00;;;;;24.57;49.82;101288.56;5100719;27;45530;-63
2022/09/05 07:47:57;;;;;;;;;5.67;5.67;;;;;24.57;49.87;101276.75;5099516;27;46233;-65
2022/09/05 07:50:24;;;;;;;;;8.33;8.00;;;;;24.58;49.89;101273.97;5097312;27;45287;-64
2022/09/05 07:52:53;;;;;;;;;8.67;5.67;;;;;24.60;50.17;101272.09;5096977;27;45403;-64
2022/09/05 07:55:29;;;;;;;;;5.67;5.00;;;;;24.62;50.17;101266.59;5108404;27;45659;-63
2022/09/05 07:57:58;;;;;;;;;7.00;4.00;;;;;24.69;50.22;101261.88;5105042;27;45647;-62
2022/09/05 08:00:26;;;;;;;;;8.00;6.67;;;;;24.75;49.52;101261.72;5103899;27;45510;-62
2022/09/05 08:02:52;;;;;;;;;5.00;5.00;;;;;24.73;49.44;101258.13;5102288;27;45365;-65
2022/09/05 08:05:20;;;;;;;;;5.00;5.00;;;;;24.84;49.99;101259.66;5102681;27;45406;-64
2022/09/05 08:07:52;;;;;;;;;5.00;5.00;;;;;24.96;50.35;101250.28;5099452;27;45412;-64
2022/09/05 08:10:32;;;;;;;;;3.33;3.33;;;;;25.01;48.63;101240.09;5098325;27;45380;-62
2022/09/05 08:13:08;;;;;;;;;8.33;7.33;;;;;25.22;48.21;101250.53;5098426;27;45370;-62
2022/09/05 08:15:37;;;;;;;;;6.00;5.00;;;;;25.11;48.25;101202.50;5102587;27;45322;-63
2022/09/05 08:18:16;;;;;;;;;6.00;5.00;;;;;25.50;47.51;101237.91;5098202;27;46278;-66
2022/09/05 08:20:54;;;;;;;;;4.67;3.33;;;;;25.68;46.75;101249.28;5104486;27;45505;-70
2022/09/05 08:23:57;;;;;;;;;6.67;4.67;;;;;25.74;46.10;101249.13;5104131;27;45548;-64
2022/09/05 08:26:25;;;;;;;;;15.67;13.00;;;;;25.83;46.20;101247.94;5098329;27;45546;-65
2022/09/05 08:29:05;;;;;;;;;8.67;7.33;;;;;25.99;46.61;101254.78;5104341;27;46225;-62
2022/09/05 08:31:52;;;;;;;;;5.00;5.00;;;;;26.19;45.60;101247.81;5107670;27;45392;-64
2022/09/05 08:34:31;;;;;;;;;5.00;5.00;;;;;26.33;44.92;101247.38;5103428;27;45550;-63
2022/09/05 08:36:59;;;;;;;;;7.00;5.00;;;;;26.45;44.06;101249.75;5097828;27;45379;-63
2022/09/05 08:39:28;;;;;;;;;8.33;5.00;;;;;26.51;44.87;101234.94;5104040;27;45519;-62
2022/09/05 08:42:12;;;;;;;;;8.00;5.00;;;;;26.72;44.08;101242.50;5099351;27;45568;-66
2022/09/05 08:45:00;;;;;;;;;5.00;5.00;;;;;26.84;43.25;101241.19;5101289;27;45584;-65
2022/09/05 08:47:38;;;;;;;;;15.33;15.33;;;;;26.93;42.31;101249.09;5097920;27;45475;-68
2022/09/05 08:50:21;;;;;;;;;6.00;6.00;;;;;27.02;41.87;101248.78;5100770;27;46221;-67
2022/09/05 08:53:31;;;;;;;;;6.67;5.00;;;;;27.01;41.79;101244.25;5096601;27;45450;-69
2022/09/05 08:56:14;;;;;;;;;6.67;5.67;;;;;27.08;42.75;101244.06;5066191;28;45580;-64
2022/09/05 08:59:17;;;;;;;;;6.00;6.00;;;;;27.15;41.05;101245.63;5072102;28;45486;-67
2022/09/05 09:02:02;;;;;;;;;5.00;5.00;;;;;27.18;42.17;101257.38;5081913;27;45216;-70
2022/09/05 09:04:39;;;;;;;;;7.00;6.33;;;;;27.30;41.44;101264.31;5099926;27;45431;-65
2022/09/05 09:07:30;;;;;;;;;6.67;6.67;;;;;27.39;41.27;101274.09;5100505;27;45522;-65
2022/09/05 09:10:12;;;;;;;;;9.00;6.33;;;;;27.45;41.16;101283.94;5101162;27;45545;-67
2022/09/05 09:13:08;;;;;;;;;5.00;4.67;;;;;27.46;40.14;101266.53;5096827;27;45470;-67
2022/09/05 09:15:56;;;;;;;;;6.00;5.00;;;;;27.41;40.82;101263.94;5096130;27;45404;-66
2022/09/05 09:18:32;;;;;;;;;5.67;4.67;;;;;27.52;41.08;101274.53;5096083;27;45548;-64
2022/09/05 09:21:19;;;;;;;;;5.33;5.33;;;;;27.51;40.72;101273.63;5106058;27;45327;-64
2022/09/05 09:24:13;;;;;;;;;3.00;3.00;;;;;27.52;40.26;101274.53;5100827;27;46500;-66
2022/09/05 09:26:57;;;;;;;;;6.00;5.00;;;;;27.54;40.47;101279.03;5097514;27;45281;-64
2022/09/05 09:29:24;;;;;;;;;4.00;4.00;;;;;27.47;40.13;101265.56;5099519;27;45521;-65
2022/09/05 09:32:06;;;;;;;;;4.33;4.00;;;;;27.54;40.10;101272.66;5100949;27;45487;-65
2022/09/05 09:34:46;;;;;;;;;5.00;5.00;;;;;27.51;39.34;101281.88;5100666;27;46213;-64
2022/09/05 09:37:27;;;;;;;;;4.33;3.00;;;;;27.53;39.71;101277.22;5100345;27;45420;-65
2022/09/05 09:40:17;;;;;;;;;3.00;3.00;;;;;27.51;39.13;101267.25;5102090;27;45578;-64
2022/09/05 09:43:21;;;;;;;;;9.00;7.67;;;;;27.49;40.02;101261.81;5102335;27;45600;-65
2022/09/05 09:46:17;;;;;;;;;2.33;2.33;;;;;27.61;39.50;101256.84;5099978;27;46182;-64
2022/09/05 09:49:09;;;;;;;;;6.67;5.67;;;;;27.72;39.13;101243.63;5100975;27;45347;-65
2022/09/05 09:51:34;;;;;;;;;4.67;4.67;;;;;27.85;38.99;101244.03;5095964;27;45471;-64
2022/09/05 09:54:15;;;;;;;;;4.00;4.00;;;;;27.88;38.98;101249.41;5095320;27;45489;-66
2022/09/05 09:57:22;;;;;;;;;4.67;4.00;;;;;27.92;38.93;101243.75;5100932;27;47049;-67
2022/09/05 10:00:09;;;;;;;;;4.00;4.00;;;;;27.90;38.72;101236.50;5098645;27;45324;-68
2022/09/05 10:02:35;;;;;;;;;2.00;2.00;;;;;28.01;39.20;101238.91;5096111;27;45526;-67
2022/09/05 10:05:25;;;;;;;;;4.67;4.67;;;;;28.13;38.21;101232.91;5103331;27;45672;-68
2022/09/05 10:07:59;;;;;;;;;2.33;2.33;;;;;28.36;37.72;101223.75;5098447;27;45826;-68
2022/09/05 10:10:59;;;;;;;;;2.33;2.33;;;;;28.51;37.46;101214.00;5098857;27;45459;-68
2022/09/05 10:13:24;;;;;;;;;2.00;2.00;;;;;28.60;36.59;101210.00;5098250;27;45530;-68
2022/09/05 10:16:11;;;;;;;;;4.67;4.67;;;;;28.72;36.63;101200.34;5095511;27;45401;-69
2022/09/05 10:18:53;;;;;;;;;3.00;2.67;;;;;28.83;35.47;101201.66;5095068;27;45578;-68
2022/09/05 10:21:37;;;;;;;;;9.00;7.00;;;;;28.96;35.55;101193.78;5101571;27;45374;-68
2022/09/05 10:24:14;;;;;;;;;3.67;3.33;;;;;29.09;35.18;101196.91;5099985;27;45635;-69
2022/09/05 10:27:12;;;;;;;;;4.33;3.00;;;;;29.19;34.74;101198.31;5100814;27;45471;-69
2022/09/05 10:29:59;;;;;;;;;7.67;5.00;;;;;29.27;35.36;101195.22;5096223;27;46384;-69
2022/09/05 10:32:39;;;;;;;;;5.67;5.67;;;;;29.31;33.53;101193.22;5097556;27;45540;-69
2022/09/05 10:35:10;;;;;;;;;6.00;4.67;;;;;29.34;34.03;101198.59;5101850;27;45543;-68
2022/09/05 10:37:41;;;;;;;;;7.33;4.67;;;;;29.39;33.19;101196.53;5102983;27;45467;-68
2022/09/05 10:40:11;;;;;;;;;4.00;4.00;;;;;29.43;32.87;101194.53;5099118;27;45721;-68
2022/09/05 10:42:50;;;;;;;;;4.00;2.00;;;;;29.01;32.14;101133.97;5099972;27;45463;-68
2022/09/05 10:45:24;;;;;;;;;2.00;2.00;;;;;29.14;32.03;101177.44;5097154;27;45269;-68
2022/09/05 10:48:17;;;;;;;;;3.33;3.33;;;;;29.06;32.75;101174.16;5098286;27;45554;-71
2022/09/05 10:50:52;;;;;;;;;3.00;3.00;;;;;29.14;32.97;101172.81;5095063;27;45540;-69
2022/09/05 10:53:25;;;;;;;;;3.00;3.00;;;;;29.15;32.79;101171.84;5094053;27;45693;-68
2022/09/05 10:55:57;;;;;;;;;5.33;1.33;;;;;29.20;32.36;101183.59;5100254;27;45458;-69
2022/09/05 10:58:42;;;;;;;;;4.00;2.00;;;;;29.26;32.34;101182.44;5100783;27;45362;-69
2022/09/05 11:01:11;;;;;;;;;5.00;4.00;;;;;29.27;32.00;101178.72;5100041;27;46144;-69
2022/09/05 11:03:49;;;;;;;;;3.00;3.00;;;;;29.23;31.84;101158.66;5101928;27;45402;-68
2022/09/05 11:06:21;;;;;;;;;4.00;4.00;;;;;29.36;32.53;101166.38;5098935;27;45438;-70
2022/09/05 11:09:04;;;;;;;;;5.00;5.00;;;;;29.34;32.04;101160.06;5098723;27;45292;-68
2022/09/05 11:11:44;;;;;;;;;4.00;4.00;;;;;29.41;32.37;101167.94;5098634;27;46505;-67
2022/09/05 11:14:35;;;;;;;;;5.00;3.00;;;;;29.39;31.99;101180.00;5097851;27;45516;-68
2022/09/05 11:17:19;;;;;;;;;2.67;2.67;;;;;29.39;32.19;101180.00;5096067;27;45481;-68
2022/09/05 11:19:58;;;;;;;;;4.00;3.67;;;;;29.39;32.42;101163.50;5097661;27;45422;-68
2022/09/05 11:22:27;;;;;;;;;4.00;3.00;;;;;29.46;32.41;101166.88;5103407;27;45527;-69
2022/09/05 11:24:56;;;;;;;;;2.00;2.00;;;;;29.47;31.95;101168.63;5103303;27;45430;-68
2022/09/05 11:27:32;;;;;;;;;3.33;3.33;;;;;29.50;32.33;101169.41;5106431;27;45509;-68
2022/09/05 11:30:16;;;;;;;;;3.67;2.33;;;;;29.55;31.97;101170.09;5102085;27;45445;-66
2022/09/05 11:33:14;;;;;;;;;2.00;2.00;;;;;29.49;31.70;101173.13;5101404;27;46067;-68
2022/09/05 11:35:57;;;;;;;;;4.00;2.33;;;;;29.28;31.85;101149.31;5090565;27;45483;-69
2022/09/05 11:38:54;;;;;;;;;2.00;2.00;;;;;29.32;32.03;101157.38;5101872;27;45400;-69
2022/09/05 11:41:31;;;;;;;;;3.00;3.00;;;;;29.29;32.58;101164.88;5101323;27;45572;-68
2022/09/05 11:44:02;;;;;;;;;5.33;5.33;;;;;28.97;32.91;101104.81;5099761;27;46097;-69
2022/09/05 11:46:38;;;;;;;;;6.00;3.00;;;;;29.38;32.82;101156.19;5098710;27;45486;-68
2022/09/05 11:49:34;;;;;;;;;2.67;2.67;;;;;29.43;32.18;101150.47;5100257;27;45594;-68
2022/09/05 11:52:39;;;;;;;;;4.00;3.67;;;;;29.44;32.22;101146.78;5097499;27;45477;-68
2022/09/05 11:55:26;;;;;;;;;4.67;4.33;;;;;29.38;31.67;101142.44;5102623;27;46326;-69
2022/09/05 11:58:03;;;;;;;;;6.33;6.33;;;;;29.37;32.25;101141.53;5098467;27;45669;-68
2022/09/05 12:00:37;;;;;;;;;10.67;10.67;;;;;29.39;32.51;101133.22;5104690;27;45459;-67
2022/09/05 12:03:21;;;;;;;;;6.33;5.33;;;;;29.42;31.98;101138.59;5104392;27;45428;-68
2022/09/05 12:06:04;;;;;;;;;6.67;6.67;;;;;29.44;31.50;101133.00;5097751;27;45462;-68
2022/09/05 12:09:02;;;;;;;;;3.67;3.33;;;;;29.42;31.61;101127.56;5103765;27;45470;-68
2022/09/05 12:12:25;;;;;;;;;3.00;3.00;;;;;29.45;31.80;101126.53;5100695;27;45434;-67
2022/09/05 12:15:36;;;;;;;;;2.00;2.00;;;;;29.44;31.34;101119.25;5065925;27;45745;-68
2022/09/05 12:18:39;;;;;;;;;4.00;2.00;;;;;29.41;31.47;101112.00;5101391;27;45345;-68
2022/09/05 12:21:39;;;;;;;;;3.00;3.00;;;;;29.40;31.18;101108.38;5102268;27;45480;-68
2022/09/05 12:24:09;;;;;;;;;3.33;3.33;;;;;29.36;30.74;101101.22;5102574;27;45466;-69
2022/09/05 12:26:54;;;;;;;;;3.00;2.00;;;;;29.33;30.68;101105.97;5102572;27;45398;-68
2022/09/05 12:29:24;;;;;;;;;6.33;3.33;;;;;29.30;31.09;101106.13;5101949;27;46192;-67
2022/09/05 12:31:57;;;;;;;;;3.33;3.00;;;;;29.29;31.67;101091.47;5101937;27;45559;-68
2022/09/05 12:34:52;;;;;;;;;3.33;2.00;;;;;29.31;30.70;101083.13;5102093;27;45709;-67
2022/09/05 12:37:35;;;;;;;;;3.00;3.00;;;;;29.32;30.72;101079.41;5099902;27;45546;-67